sensor_id;sensor_type;location;lat;lon;timestamp;pressure;altitude;pressure_sealevel;temperature;humidity
62926;BME280;55732;52.248;-0.844;2022-07-05T00:02:13;101460.91;;;14.17;64.44
62926;BME280;55732;52.248;-0.844;2022-07-05T00:04:38;101465.17;;;14.14;64.45
62926;BME280;55732;52.248;-0.844;2022-07-05T00:07:03;101468.36;;;14.11;64.55
62926;BME280;55732;52.248;-0.844;2022-07-05T00:09:46;101462.69;;;14.08;64.65
62926;BME280;55732;52.248;-0.844;2022-07-05T00:12:11;101463.04;;;14.06;64.65
62926;BME280;55732;52.248;-0.844;2022-07-05T00:14:41;101465.37;;;14.02;64.81
62926;BME280;55732;52.248;-0.844;2022-07-05T00:17:07;101466.77;;;13.98;64.80
62926;BME280;55732;52.248;-0.844;2022-07-05T00:19:32;101461.30;;;13.93;65.03
62926;BME280;55732;52.248;-0.844;2022-07-05T00:21:58;101464.67;;;13.89;65.09
62926;BME280;55732;52.248;-0.844;2022-07-05T00:24:25;101464.84;;;13.86;65.36
62926;BME280;55732;52.248;-0.844;2022-07-05T00:26:50;101467.31;;;13.82;65.34
62926;BME280;55732;52.248;-0.844;2022-07-05T00:29:16;101460.95;;;13.78;65.35
62926;BME280;55732;52.248;-0.844;2022-07-05T00:31:41;101463.42;;;13.75;65.61
62926;BME280;55732;52.248;-0.844;2022-07-05T00:34:07;101461.30;;;13.70;65.54
62926;BME280;55732;52.248;-0.844;2022-07-05T00:36:32;101463.09;;;13.67;65.85
62926;BME280;55732;52.248;-0.844;2022-07-05T00:38:58;101465.56;;;13.64;65.85
62926;BME280;55732;52.248;-0.844;2022-07-05T00:41:23;101465.55;;;13.62;65.83
62926;BME280;55732;52.248;-0.844;2022-07-05T00:44:15;101468.90;;;13.59;65.93
62926;BME280;55732;52.248;-0.844;2022-07-05T00:46:42;101469.08;;;13.58;66.22
62926;BME280;55732;52.248;-0.844;2022-07-05T00:49:08;101469.63;;;13.56;66.23
62926;BME280;55732;52.248;-0.844;2022-07-05T00:51:35;101471.92;;;13.52;66.14
62926;BME280;55732;52.248;-0.844;2022-07-05T00:54:02;101468.20;;;13.50;66.24
62926;BME280;55732;52.248;-0.844;2022-07-05T00:56:28;101466.95;;;13.50;66.43
62926;BME280;55732;52.248;-0.844;2022-07-05T00:58:54;101465.70;;;13.47;66.52
62926;BME280;55732;52.248;-0.844;2022-07-05T01:01:20;101464.83;;;13.46;66.40
62926;BME280;55732;52.248;-0.844;2022-07-05T01:03:45;101465.00;;;13.46;66.58
62926;BME280;55732;52.248;-0.844;2022-07-05T01:06:12;101466.94;;;13.46;66.59
62926;BME280;55732;52.248;-0.844;2022-07-05T01:08:40;101466.26;;;13.45;66.47
62926;BME280;55732;52.248;-0.844;2022-07-05T01:11:06;101468.20;;;13.44;66.41
62926;BME280;55732;52.248;-0.844;2022-07-05T01:13:32;101471.56;;;13.42;66.72
62926;BME280;55732;52.248;-0.844;2022-07-05T01:15:58;101471.02;;;13.40;66.66
62926;BME280;55732;52.248;-0.844;2022-07-05T01:18:24;101469.60;;;13.38;66.79
62926;BME280;55732;52.248;-0.844;2022-07-05T01:20:50;101469.77;;;13.35;66.69
62926;BME280;55732;52.248;-0.844;2022-07-05T01:23:20;101469.06;;;13.30;66.67
62926;BME280;55732;52.248;-0.844;2022-07-05T01:25:49;101465.33;;;13.26;66.85
62926;BME280;55732;52.248;-0.844;2022-07-05T01:28:15;101468.68;;;13.22;66.98
62926;BME280;55732;52.248;-0.844;2022-07-05T01:30:42;101465.86;;;13.17;66.91
62926;BME280;55732;52.248;-0.844;2022-07-05T01:33:08;101461.40;;;13.14;67.13
62926;BME280;55732;52.248;-0.844;2022-07-05T01:35:35;101467.02;;;13.12;67.32
62926;BME280;55732;52.248;-0.844;2022-07-05T01:38:01;101465.27;;;13.10;67.41
62926;BME280;55732;52.248;-0.844;2022-07-05T01:40:26;101470.74;;;13.06;67.53
62926;BME280;55732;52.248;-0.844;2022-07-05T01:42:52;101470.02;;;13.02;67.46
62926;BME280;55732;52.248;-0.844;2022-07-05T01:45:19;101473.02;;;12.99;67.63
62926;BME280;55732;52.248;-0.844;2022-07-05T01:48:05;101469.64;;;12.93;67.72
62926;BME280;55732;52.248;-0.844;2022-07-05T01:50:33;101468.37;;;12.87;67.74
62926;BME280;55732;52.248;-0.844;2022-07-05T01:53:00;101466.79;;;12.83;67.88
62926;BME280;55732;52.248;-0.844;2022-07-05T01:55:29;101473.30;;;12.81;67.98
62926;BME280;55732;52.248;-0.844;2022-07-05T01:57:55;101470.80;;;12.77;67.90
62926;BME280;55732;52.248;-0.844;2022-07-05T02:00:20;101474.70;;;12.73;67.83
62926;BME280;55732;52.248;-0.844;2022-07-05T02:02:46;101473.61;;;12.70;67.75
62926;BME280;55732;52.248;-0.844;2022-07-05T02:05:12;101475.89;;;12.67;67.96
62926;BME280;55732;52.248;-0.844;2022-07-05T02:07:47;101479.77;;;12.63;68.02
62926;BME280;55732;52.248;-0.844;2022-07-05T02:10:12;101479.93;;;12.60;68.18
62926;BME280;55732;52.248;-0.844;2022-07-05T02:12:38;101477.26;;;12.57;68.08
62926;BME280;55732;52.248;-0.844;2022-07-05T02:15:03;101471.77;;;12.55;68.14
62926;BME280;55732;52.248;-0.844;2022-07-05T02:17:29;101468.05;;;12.52;68.46
62926;BME280;55732;52.248;-0.844;2022-07-05T02:19:54;101471.75;;;12.50;68.33
62926;BME280;55732;52.248;-0.844;2022-07-05T02:22:20;101473.52;;;12.48;68.44
62926;BME280;55732;52.248;-0.844;2022-07-05T02:24:46;101469.61;;;12.45;68.42
62926;BME280;55732;52.248;-0.844;2022-07-05T02:27:11;101473.83;;;12.43;68.62
62926;BME280;55732;52.248;-0.844;2022-07-05T02:29:37;101467.63;;;12.41;68.64
62926;BME280;55732;52.248;-0.844;2022-07-05T02:32:02;101471.52;;;12.42;68.56
62926;BME280;55732;52.248;-0.844;2022-07-05T02:34:28;101467.98;;;12.42;68.56
62926;BME280;55732;52.248;-0.844;2022-07-05T02:36:53;101480.71;;;12.42;68.45
62926;BME280;55732;52.248;-0.844;2022-07-05T02:39:19;101473.48;;;12.43;68.59
62926;BME280;55732;52.248;-0.844;2022-07-05T02:41:44;101470.80;;;12.37;68.38
62926;BME280;55732;52.248;-0.844;2022-07-05T02:44:09;101476.30;;;12.43;68.52
62926;BME280;55732;52.248;-0.844;2022-07-05T02:46:35;101474.54;;;12.44;68.33
62926;BME280;55732;52.248;-0.844;2022-07-05T02:49:00;101471.20;;;12.45;68.45
62926;BME280;55732;52.248;-0.844;2022-07-05T02:51:26;101476.33;;;12.46;68.47
62926;BME280;55732;52.248;-0.844;2022-07-05T02:53:51;101475.45;;;12.46;68.39
62926;BME280;55732;52.248;-0.844;2022-07-05T02:56:17;101477.05;;;12.47;68.39
62926;BME280;55732;52.248;-0.844;2022-07-05T02:58:42;101476.16;;;12.48;68.37
62926;BME280;55732;52.248;-0.844;2022-07-05T03:01:08;101479.70;;;12.51;68.41
62926;BME280;55732;52.248;-0.844;2022-07-05T03:03:33;101481.11;;;12.52;68.48
62926;BME280;55732;52.248;-0.844;2022-07-05T03:05:58;101477.77;;;12.50;68.16
62926;BME280;55732;52.248;-0.844;2022-07-05T03:08:24;101485.71;;;12.50;68.24
62926;BME280;55732;52.248;-0.844;2022-07-05T03:10:49;101483.23;;;12.51;68.36
62926;BME280;55732;52.248;-0.844;2022-07-05T03:13:15;101485.88;;;12.51;68.38
62926;BME280;55732;52.248;-0.844;2022-07-05T03:15:40;101485.54;;;12.50;68.28
62926;BME280;55732;52.248;-0.844;2022-07-05T03:18:06;101484.81;;;12.48;68.34
62926;BME280;55732;52.248;-0.844;2022-07-05T03:20:32;101487.45;;;12.45;68.37
62926;BME280;55732;52.248;-0.844;2022-07-05T03:22:57;101481.95;;;12.43;68.21
62926;BME280;55732;52.248;-0.844;2022-07-05T03:25:23;101473.96;;;12.37;68.35
62926;BME280;55732;52.248;-0.844;2022-07-05T03:27:48;101492.17;;;12.40;68.51
62926;BME280;55732;52.248;-0.844;2022-07-05T03:30:13;101491.65;;;12.39;68.40
62926;BME280;55732;52.248;-0.844;2022-07-05T03:32:39;101493.23;;;12.37;68.41
62926;BME280;55732;52.248;-0.844;2022-07-05T03:35:05;101491.80;;;12.34;68.39
62926;BME280;55732;52.248;-0.844;2022-07-05T03:37:30;101492.11;;;12.29;68.66
62926;BME280;55732;52.248;-0.844;2022-07-05T03:39:56;101487.52;;;12.26;68.52
62926;BME280;55732;52.248;-0.844;2022-07-05T03:42:21;101491.58;;;12.25;68.71
62926;BME280;55732;52.248;-0.844;2022-07-05T03:44:46;101496.69;;;12.23;68.73
62926;BME280;55732;52.248;-0.844;2022-07-05T03:47:13;101494.91;;;12.22;68.77
62926;BME280;55732;52.248;-0.844;2022-07-05T03:49:39;101491.90;;;12.22;68.63
62926;BME280;55732;52.248;-0.844;2022-07-05T03:52:04;101491.54;;;12.21;68.52
62926;BME280;55732;52.248;-0.844;2022-07-05T03:54:29;101490.99;;;12.20;68.84
62926;BME280;55732;52.248;-0.844;2022-07-05T03:56:55;101494.52;;;12.18;68.75
62926;BME280;55732;52.248;-0.844;2022-07-05T03:59:20;101497.17;;;12.20;68.79
62926;BME280;55732;52.248;-0.844;2022-07-05T04:01:46;101492.56;;;12.19;68.71
62926;BME280;55732;52.248;-0.844;2022-07-05T04:04:11;101494.84;;;12.17;68.93
62926;BME280;55732;52.248;-0.844;2022-07-05T04:06:37;101497.86;;;12.15;69.01
62926;BME280;55732;52.248;-0.844;2022-07-05T04:09:02;101496.61;;;12.16;68.97
62926;BME280;55732;52.248;-0.844;2022-07-05T04:11:27;101502.44;;;12.17;68.83
62926;BME280;55732;52.248;-0.844;2022-07-05T04:13:53;101504.92;;;12.16;68.98
62926;BME280;55732;52.248;-0.844;2022-07-05T04:16:18;101505.27;;;12.16;68.98
62926;BME280;55732;52.248;-0.844;2022-07-05T04:18:44;101502.09;;;12.17;69.05
62926;BME280;55732;52.248;-0.844;2022-07-05T04:21:09;101500.86;;;12.17;68.97
62926;BME280;55732;52.248;-0.844;2022-07-05T04:23:35;101507.95;;;12.20;69.16
62926;BME280;55732;52.248;-0.844;2022-07-05T04:26:00;101510.46;;;12.24;68.99
62926;BME280;55732;52.248;-0.844;2022-07-05T04:28:27;101505.15;;;12.23;68.63
62926;BME280;55732;52.248;-0.844;2022-07-05T04:30:55;101510.94;;;12.19;68.87
62926;BME280;55732;52.248;-0.844;2022-07-05T04:33:21;101512.73;;;12.22;69.04
62926;BME280;55732;52.248;-0.844;2022-07-05T04:35:46;101520.71;;;12.27;68.92
62926;BME280;55732;52.248;-0.844;2022-07-05T04:38:12;101516.84;;;12.29;68.78
62926;BME280;55732;52.248;-0.844;2022-07-05T04:40:37;101520.60;;;12.36;68.81
62926;BME280;55732;52.248;-0.844;2022-07-05T04:43:02;101514.13;;;12.46;68.54
62926;BME280;55732;52.248;-0.844;2022-07-05T04:45:28;101515.27;;;12.58;68.29
62926;BME280;55732;52.248;-0.844;2022-07-05T04:47:53;101511.82;;;12.80;68.14
62926;BME280;55732;52.248;-0.844;2022-07-05T04:50:19;101510.52;;;13.09;67.67
62926;BME280;55732;52.248;-0.844;2022-07-05T04:52:44;101512.77;;;13.37;67.03
62926;BME280;55732;52.248;-0.844;2022-07-05T04:55:09;101512.45;;;13.88;66.06
62926;BME280;55732;52.248;-0.844;2022-07-05T04:57:41;101519.86;;;14.29;65.35
62926;BME280;55732;52.248;-0.844;2022-07-05T05:00:12;101518.28;;;14.46;64.76
62926;BME280;55732;52.248;-0.844;2022-07-05T05:02:38;101517.02;;;14.52;64.42
62926;BME280;55732;52.248;-0.844;2022-07-05T05:05:04;101527.49;;;14.41;64.21
62926;BME280;55732;52.248;-0.844;2022-07-05T05:07:30;101524.14;;;14.22;64.27
62926;BME280;55732;52.248;-0.844;2022-07-05T05:09:55;101519.01;;;14.04;64.55
62926;BME280;55732;52.248;-0.844;2022-07-05T05:12:21;101520.42;;;14.07;64.48
62926;BME280;55732;52.248;-0.844;2022-07-05T05:14:48;101524.48;;;14.09;64.52
62926;BME280;55732;52.248;-0.844;2022-07-05T05:17:13;101529.83;;;14.01;64.54
62926;BME280;55732;52.248;-0.844;2022-07-05T05:19:38;101525.91;;;13.95;64.72
62926;BME280;55732;52.248;-0.844;2022-07-05T05:22:04;101530.16;;;13.94;64.75
62926;BME280;55732;52.248;-0.844;2022-07-05T05:24:30;101526.27;;;13.98;64.61
62926;BME280;55732;52.248;-0.844;2022-07-05T05:26:55;101533.17;;;14.05;64.68
62926;BME280;55732;52.248;-0.844;2022-07-05T05:29:21;101529.09;;;14.09;64.70
62926;BME280;55732;52.248;-0.844;2022-07-05T05:31:47;101531.94;;;14.11;64.75
62926;BME280;55732;52.248;-0.844;2022-07-05T05:34:13;101535.66;;;14.15;64.64
62926;BME280;55732;52.248;-0.844;2022-07-05T05:36:38;101537.60;;;14.21;64.72
62926;BME280;55732;52.248;-0.844;2022-07-05T05:39:04;101538.64;;;14.27;64.62
62926;BME280;55732;52.248;-0.844;2022-07-05T05:41:29;101543.61;;;14.35;64.36
62926;BME280;55732;52.248;-0.844;2022-07-05T05:43:55;101546.61;;;14.57;64.08
62926;BME280;55732;52.248;-0.844;2022-07-05T05:46:20;101543.20;;;14.71;63.88
62926;BME280;55732;52.248;-0.844;2022-07-05T05:48:46;101542.98;;;14.85;63.67
62926;BME280;55732;52.248;-0.844;2022-07-05T05:51:11;101540.41;;;15.07;63.38
62926;BME280;55732;52.248;-0.844;2022-07-05T05:53:36;101539.36;;;15.42;62.61
62926;BME280;55732;52.248;-0.844;2022-07-05T05:56:02;101545.40;;;16.16;61.54
62926;BME280;55732;52.248;-0.844;2022-07-05T05:58:29;101544.96;;;17.09;59.81
62926;BME280;55732;52.248;-0.844;2022-07-05T06:00:54;101543.48;;;17.42;58.96
62926;BME280;55732;52.248;-0.844;2022-07-05T06:03:21;101546.85;;;17.54;58.84
62926;BME280;55732;52.248;-0.844;2022-07-05T06:05:47;101547.29;;;17.75;58.21
62926;BME280;55732;52.248;-0.844;2022-07-05T06:08:13;101550.95;;;17.80;57.94
62926;BME280;55732;52.248;-0.844;2022-07-05T06:10:39;101550.71;;;17.72;57.76
62926;BME280;55732;52.248;-0.844;2022-07-05T06:13:07;101554.36;;;17.67;57.63
62926;BME280;55732;52.248;-0.844;2022-07-05T06:15:33;101553.66;;;17.66;57.64
62926;BME280;55732;52.248;-0.844;2022-07-05T06:17:59;101556.26;;;17.56;57.80
62926;BME280;55732;52.248;-0.844;2022-07-05T06:20:29;101560.97;;;17.50;57.88
62926;BME280;55732;52.248;-0.844;2022-07-05T06:22:56;101563.23;;;17.53;57.98
62926;BME280;55732;52.248;-0.844;2022-07-05T06:25:22;101563.35;;;17.59;58.00
62926;BME280;55732;52.248;-0.844;2022-07-05T06:27:57;101566.01;;;17.74;57.68
62926;BME280;55732;52.248;-0.844;2022-07-05T06:30:25;101566.63;;;17.80;58.01
62926;BME280;55732;52.248;-0.844;2022-07-05T06:32:52;101571.00;;;17.96;57.84
62926;BME280;55732;52.248;-0.844;2022-07-05T06:35:18;101573.05;;;18.02;57.60
62926;BME280;55732;52.248;-0.844;2022-07-05T06:37:45;101576.14;;;17.98;57.45
62926;BME280;55732;52.248;-0.844;2022-07-05T06:40:13;101580.36;;;17.91;57.51
62926;BME280;55732;52.248;-0.844;2022-07-05T06:42:38;101579.46;;;17.92;57.43
62926;BME280;55732;52.248;-0.844;2022-07-05T06:45:06;101581.73;;;17.94;57.39
62926;BME280;55732;52.248;-0.844;2022-07-05T06:47:32;101584.20;;;17.95;57.38
62926;BME280;55732;52.248;-0.844;2022-07-05T06:49:58;101588.05;;;18.00;57.46
62926;BME280;55732;52.248;-0.844;2022-07-05T06:52:23;101586.59;;;18.13;57.27
62926;BME280;55732;52.248;-0.844;2022-07-05T06:54:49;101586.58;;;18.25;57.30
62926;BME280;55732;52.248;-0.844;2022-07-05T06:57:18;101590.50;;;18.34;56.97
62926;BME280;55732;52.248;-0.844;2022-07-05T06:59:44;101587.79;;;18.47;56.48
62926;BME280;55732;52.248;-0.844;2022-07-05T07:02:09;101587.41;;;18.60;56.31
62926;BME280;55732;52.248;-0.844;2022-07-05T07:04:35;101589.52;;;18.81;55.96
62926;BME280;55732;52.248;-0.844;2022-07-05T07:07:00;101587.80;;;19.04;55.38
62926;BME280;55732;52.248;-0.844;2022-07-05T07:09:25;101587.34;;;19.27;54.86
62926;BME280;55732;52.248;-0.844;2022-07-05T07:11:51;101585.28;;;19.49;54.58
62926;BME280;55732;52.248;-0.844;2022-07-05T07:14:16;101585.42;;;19.67;54.36
62926;BME280;55732;52.248;-0.844;2022-07-05T07:16:42;101586.27;;;19.91;53.67
62926;BME280;55732;52.248;-0.844;2022-07-05T07:19:07;101590.42;;;19.89;53.10
62926;BME280;55732;52.248;-0.844;2022-07-05T07:21:33;101592.45;;;19.80;53.03
62926;BME280;55732;52.248;-0.844;2022-07-05T07:23:59;101595.21;;;19.68;52.62
62926;BME280;55732;52.248;-0.844;2022-07-05T07:26:24;101601.06;;;19.54;52.63
62926;BME280;55732;52.248;-0.844;2022-07-05T07:28:50;101604.60;;;19.30;52.73
62926;BME280;55732;52.248;-0.844;2022-07-05T07:31:15;101609.88;;;19.16;53.20
62926;BME280;55732;52.248;-0.844;2022-07-05T07:33:41;101614.41;;;19.12;53.33
62926;BME280;55732;52.248;-0.844;2022-07-05T07:36:06;101612.52;;;19.26;53.05
62926;BME280;55732;52.248;-0.844;2022-07-05T07:38:32;101616.97;;;19.44;52.98
62926;BME280;55732;52.248;-0.844;2022-07-05T07:40:58;101614.62;;;19.56;52.81
62926;BME280;55732;52.248;-0.844;2022-07-05T07:43:25;101615.41;;;19.59;52.71
62926;BME280;55732;52.248;-0.844;2022-07-05T07:45:50;101615.53;;;19.62;52.57
62926;BME280;55732;52.248;-0.844;2022-07-05T07:48:16;101617.63;;;19.58;52.53
62926;BME280;55732;52.248;-0.844;2022-07-05T07:50:41;101623.27;;;19.33;51.67
62926;BME280;55732;52.248;-0.844;2022-07-05T07:53:07;101624.20;;;19.05;52.28
62926;BME280;55732;52.248;-0.844;2022-07-05T07:55:32;101631.95;;;19.02;52.57
62926;BME280;55732;52.248;-0.844;2022-07-05T07:57:57;101638.46;;;19.25;52.61
62926;BME280;55732;52.248;-0.844;2022-07-05T08:00:23;101636.60;;;19.46;51.72
62926;BME280;55732;52.248;-0.844;2022-07-05T08:02:48;101639.88;;;19.52;51.66
62926;BME280;55732;52.248;-0.844;2022-07-05T08:05:14;101641.39;;;19.65;51.41
62926;BME280;55732;52.248;-0.844;2022-07-05T08:07:40;101643.91;;;19.72;51.01
62926;BME280;55732;52.248;-0.844;2022-07-05T08:10:07;101643.65;;;19.75;50.89
62926;BME280;55732;52.248;-0.844;2022-07-05T08:12:32;101641.15;;;19.91;50.58
62926;BME280;55732;52.248;-0.844;2022-07-05T08:14:58;101641.58;;;20.18;49.91
62926;BME280;55732;52.248;-0.844;2022-07-05T08:17:24;101634.99;;;20.32;49.86
62926;BME280;55732;52.248;-0.844;2022-07-05T08:19:49;101639.06;;;20.63;49.33
62926;BME280;55732;52.248;-0.844;2022-07-05T08:22:33;101636.41;;;21.27;48.39
62926;BME280;55732;52.248;-0.844;2022-07-05T08:24:59;101633.13;;;22.79;45.81
62926;BME280;55732;52.248;-0.844;2022-07-05T08:27:25;101635.04;;;24.25;42.93
62926;BME280;55732;52.248;-0.844;2022-07-05T08:29:51;101640.53;;;24.87;41.07
62926;BME280;55732;52.248;-0.844;2022-07-05T08:32:17;101633.71;;;24.57;39.34
62926;BME280;55732;52.248;-0.844;2022-07-05T08:34:42;101635.69;;;24.31;39.55
62926;BME280;55732;52.248;-0.844;2022-07-05T08:37:08;101622.53;;;25.88;36.96
62926;BME280;55732;52.248;-0.844;2022-07-05T08:39:34;101627.73;;;26.68;37.00
62926;BME280;55732;52.248;-0.844;2022-07-05T08:42:00;101630.15;;;28.35;35.31
62926;BME280;55732;52.248;-0.844;2022-07-05T08:44:30;101631.48;;;28.90;34.08
62926;BME280;55732;52.248;-0.844;2022-07-05T08:47:02;101633.04;;;29.98;32.25
62926;BME280;55732;52.248;-0.844;2022-07-05T08:49:28;101639.54;;;29.31;31.29
62926;BME280;55732;52.248;-0.844;2022-07-05T08:51:58;101642.95;;;28.94;30.81
62926;BME280;55732;52.248;-0.844;2022-07-05T08:54:25;101633.58;;;28.22;31.60
62926;BME280;55732;52.248;-0.844;2022-07-05T08:56:50;101634.00;;;27.28;32.83
62926;BME280;55732;52.248;-0.844;2022-07-05T08:59:16;101637.98;;;26.41;33.55
62926;BME280;55732;52.248;-0.844;2022-07-05T09:01:44;101640.13;;;25.36;34.76
62926;BME280;55732;52.248;-0.844;2022-07-05T09:04:11;101642.34;;;24.27;36.37
62926;BME280;55732;52.248;-0.844;2022-07-05T09:06:38;101647.73;;;23.59;37.59
62926;BME280;55732;52.248;-0.844;2022-07-05T09:09:04;101652.09;;;23.14;37.95
62926;BME280;55732;52.248;-0.844;2022-07-05T09:11:49;101647.27;;;22.78;38.39
62926;BME280;55732;52.248;-0.844;2022-07-05T09:14:33;101647.58;;;23.05;38.57
62926;BME280;55732;52.248;-0.844;2022-07-05T09:16:58;101646.50;;;24.80;36.22
62926;BME280;55732;52.248;-0.844;2022-07-05T09:19:24;101643.20;;;26.59;33.79
62926;BME280;55732;52.248;-0.844;2022-07-05T09:22:00;101644.96;;;26.32;34.63
62926;BME280;55732;52.248;-0.844;2022-07-05T09:24:28;101646.49;;;25.74;35.22
62926;BME280;55732;52.248;-0.844;2022-07-05T09:27:01;101646.09;;;24.99;35.63
62926;BME280;55732;52.248;-0.844;2022-07-05T09:29:27;101623.02;;;24.46;36.27
62926;BME280;55732;52.248;-0.844;2022-07-05T09:31:53;101635.86;;;24.18;36.94
62926;BME280;55732;52.248;-0.844;2022-07-05T09:34:19;101635.67;;;24.05;37.15
62926;BME280;55732;52.248;-0.844;2022-07-05T09:42:20;101643.20;;;22.81;39.23
62926;BME280;55732;52.248;-0.844;2022-07-05T09:44:55;101645.23;;;22.54;39.55
62926;BME280;55732;52.248;-0.844;2022-07-05T09:47:27;101640.44;;;22.47;39.91
62926;BME280;55732;52.248;-0.844;2022-07-05T09:49:55;101644.55;;;22.53;39.72
62926;BME280;55732;52.248;-0.844;2022-07-05T09:52:32;101642.90;;;22.26;39.79
62926;BME280;55732;52.248;-0.844;2022-07-05T09:55:11;101641.99;;;21.93;40.60
62926;BME280;55732;52.248;-0.844;2022-07-05T09:57:39;101645.66;;;21.79;41.22
62926;BME280;55732;52.248;-0.844;2022-07-05T10:00:13;101635.48;;;21.66;41.14
62926;BME280;55732;52.248;-0.844;2022-07-05T10:02:42;101641.83;;;22.14;40.68
62926;BME280;55732;52.248;-0.844;2022-07-05T10:05:09;101641.00;;;24.17;38.03
62926;BME280;55732;52.248;-0.844;2022-07-05T10:07:35;101632.73;;;26.79;34.94
62926;BME280;55732;52.248;-0.844;2022-07-05T10:10:01;101629.08;;;28.82;32.32
62926;BME280;55732;52.248;-0.844;2022-07-05T10:12:28;101630.52;;;30.38;29.99
62926;BME280;55732;52.248;-0.844;2022-07-05T10:14:57;101624.26;;;31.64;29.16
62926;BME280;55732;52.248;-0.844;2022-07-05T10:17:26;101633.15;;;33.06;27.47
62926;BME280;55732;52.248;-0.844;2022-07-05T10:19:54;101630.22;;;32.66;27.12
62926;BME280;55732;52.248;-0.844;2022-07-05T10:22:21;101626.22;;;30.98;28.42
62926;BME280;55732;52.248;-0.844;2022-07-05T10:24:47;101629.01;;;29.53;29.47
62926;BME280;55732;52.248;-0.844;2022-07-05T10:27:13;101627.10;;;28.34;30.54
62926;BME280;55732;52.248;-0.844;2022-07-05T10:29:40;101629.27;;;28.47;30.17
62926;BME280;55732;52.248;-0.844;2022-07-05T10:32:07;101631.58;;;28.22;30.50
62926;BME280;55732;52.248;-0.844;2022-07-05T10:34:34;101629.55;;;27.69;31.89
62926;BME280;55732;52.248;-0.844;2022-07-05T10:37:00;101627.52;;;27.41;32.25
62926;BME280;55732;52.248;-0.844;2022-07-05T10:39:26;101628.00;;;27.22;32.84
62926;BME280;55732;52.248;-0.844;2022-07-05T10:41:52;101627.25;;;27.12;33.21
62926;BME280;55732;52.248;-0.844;2022-07-05T10:44:26;101636.88;;;27.01;32.96
62926;BME280;55732;52.248;-0.844;2022-07-05T10:47:07;101640.26;;;26.67;33.26
62926;BME280;55732;52.248;-0.844;2022-07-05T10:49:33;101636.17;;;26.41;33.62
62926;BME280;55732;52.248;-0.844;2022-07-05T10:51:59;101635.96;;;26.23;34.01
62926;BME280;55732;52.248;-0.844;2022-07-05T10:54:24;101639.05;;;26.23;34.62
62926;BME280;55732;52.248;-0.844;2022-07-05T10:57:21;101635.21;;;26.24;34.41
62926;BME280;55732;52.248;-0.844;2022-07-05T11:00:08;101636.33;;;26.09;34.51
62926;BME280;55732;52.248;-0.844;2022-07-05T11:02:35;101627.31;;;25.90;34.59
62926;BME280;55732;52.248;-0.844;2022-07-05T11:05:01;101634.61;;;25.81;34.84
62926;BME280;55732;52.248;-0.844;2022-07-05T11:08:01;101635.45;;;25.75;34.88
62926;BME280;55732;52.248;-0.844;2022-07-05T11:10:30;101642.71;;;25.46;35.25
62926;BME280;55732;52.248;-0.844;2022-07-05T11:12:58;101650.41;;;25.32;35.91
62926;BME280;55732;52.248;-0.844;2022-07-05T11:15:23;101656.25;;;25.27;36.23
62926;BME280;55732;52.248;-0.844;2022-07-05T11:17:49;101655.05;;;25.05;36.63
62926;BME280;55732;52.248;-0.844;2022-07-05T11:20:27;101663.05;;;24.82;36.67
62926;BME280;55732;52.248;-0.844;2022-07-05T11:23:01;101665.79;;;24.48;37.17
62926;BME280;55732;52.248;-0.844;2022-07-05T11:25:33;101666.70;;;24.17;37.69
62926;BME280;55732;52.248;-0.844;2022-07-05T11:30:55;101667.49;;;23.83;38.90
62926;BME280;55732;52.248;-0.844;2022-07-05T11:33:42;101666.39;;;24.11;38.74
62926;BME280;55732;52.248;-0.844;2022-07-05T11:36:22;101667.96;;;24.17;38.60
62926;BME280;55732;52.248;-0.844;2022-07-05T11:39:16;101672.38;;;24.14;38.76
62926;BME280;55732;52.248;-0.844;2022-07-05T11:41:46;101675.45;;;24.09;38.97
62926;BME280;55732;52.248;-0.844;2022-07-05T11:44:11;101681.45;;;23.95;39.16
62926;BME280;55732;52.248;-0.844;2022-07-05T11:46:38;101673.50;;;23.95;39.14
62926;BME280;55732;52.248;-0.844;2022-07-05T11:49:03;101665.91;;;23.91;39.58
62926;BME280;55732;52.248;-0.844;2022-07-05T11:51:29;101667.25;;;23.94;39.66
62926;BME280;55732;52.248;-0.844;2022-07-05T11:53:54;101661.38;;;24.01;39.76
62926;BME280;55732;52.248;-0.844;2022-07-05T11:56:20;101665.73;;;24.09;39.89
62926;BME280;55732;52.248;-0.844;2022-07-05T11:58:46;101667.06;;;24.17;40.00
62926;BME280;55732;52.248;-0.844;2022-07-05T12:01:11;101668.36;;;24.16;39.78
62926;BME280;55732;52.248;-0.844;2022-07-05T12:03:37;101676.45;;;23.93;40.46
62926;BME280;55732;52.248;-0.844;2022-07-05T12:06:11;101675.33;;;23.71;40.62
62926;BME280;55732;52.248;-0.844;2022-07-05T12:08:37;101674.20;;;23.44;40.87
62926;BME280;55732;52.248;-0.844;2022-07-05T12:11:03;101669.20;;;23.23;41.61
62926;BME280;55732;52.248;-0.844;2022-07-05T12:13:48;101667.12;;;23.12;41.94
62926;BME280;55732;52.248;-0.844;2022-07-05T12:16:15;101663.02;;;23.05;42.19
62926;BME280;55732;52.248;-0.844;2022-07-05T12:21:13;101658.81;;;23.22;42.47
62926;BME280;55732;52.248;-0.844;2022-07-05T12:23:42;101658.11;;;23.41;42.44
62926;BME280;55732;52.248;-0.844;2022-07-05T12:26:08;101655.19;;;23.66;42.17
62926;BME280;55732;52.248;-0.844;2022-07-05T12:28:34;101655.20;;;23.81;41.97
62926;BME280;55732;52.248;-0.844;2022-07-05T12:31:14;101659.73;;;23.80;42.13
62926;BME280;55732;52.248;-0.844;2022-07-05T12:33:40;101662.48;;;23.74;41.91
62926;BME280;55732;52.248;-0.844;2022-07-05T12:36:11;101664.15;;;23.68;42.01
62926;BME280;55732;52.248;-0.844;2022-07-05T12:38:36;101660.66;;;23.74;42.12
62926;BME280;55732;52.248;-0.844;2022-07-05T12:41:02;101656.13;;;23.89;42.16
62926;BME280;55732;52.248;-0.844;2022-07-05T12:43:27;101654.75;;;24.01;42.11
62926;BME280;55732;52.248;-0.844;2022-07-05T12:46:03;101654.56;;;24.05;42.23
62926;BME280;55732;52.248;-0.844;2022-07-05T12:48:39;101651.11;;;24.20;41.90
62926;BME280;55732;52.248;-0.844;2022-07-05T12:51:08;101653.60;;;24.47;41.78
62926;BME280;55732;52.248;-0.844;2022-07-05T12:53:34;101654.86;;;24.43;41.30